sensor_id;sensor_type;location;lat;lon;timestamp;temperature;humidity
3528;DHT22;1778;47.966;7.854;2023-07-08T00:00:35;19.70;99.90
3528;DHT22;1778;47.966;7.854;2023-07-08T00:01:37;19.60;99.90
3528;DHT22;1778;47.966;7.854;2023-07-08T00:02:40;19.60;99.90
3528;DHT22;1778;47.966;7.854;2023-07-08T00:03:42;19.60;99.90
3528;DHT22;1778;47.966;7.854;2023-07-08T00:04:44;19.60;99.90
3528;DHT22;1778;47.966;7.854;2023-07-08T00:05:47;19.60;99.90
3528;DHT22;1778;47.966;7.854;2023-07-08T00:06:49;19.60;99.90
3528;DHT22;1778;47.966;7.854;2023-07-08T00:07:51;19.50;99.90
3528;DHT22;1778;47.966;7.854;2023-07-08T00:08:53;19.50;99.90
3528;DHT22;1778;47.966;7.854;2023-07-08T00:09:54;19.50;99.90
3528;DHT22;1778;47.966;7.854;2023-07-08T00:10:56;19.50;99.90
3528;DHT22;1778;47.966;7.854;2023-07-08T00:11:58;19.50;99.90
3528;DHT22;1778;47.966;7.854;2023-07-08T00:13:00;19.50;99.90
3528;DHT22;1778;47.966;7.854;2023-07-08T00:14:02;19.50;99.90
3528;DHT22;1778;47.966;7.854;2023-07-08T00:15:04;19.40;99.90
3528;DHT22;1778;47.966;7.854;2023-07-08T00:16:16;19.40;99.90
3528;DHT22;1778;47.966;7.854;2023-07-08T00:17:18;19.40;99.90
3528;DHT22;1778;47.966;7.854;2023-07-08T00:18:20;19.40;99.90
3528;DHT22;1778;47.966;7.854;2023-07-08T00:19:21;19.40;99.90
3528;DHT22;1778;47.966;7.854;2023-07-08T00:20:44;19.40;99.90
3528;DHT22;1778;47.966;7.854;2023-07-08T00:21:46;19.50;99.90
3528;DHT22;1778;47.966;7.854;2023-07-08T00:22:48;19.50;99.90
3528;DHT22;1778;47.966;7.854;2023-07-08T00:23:51;19.50;99.90
3528;DHT22;1778;47.966;7.854;2023-07-08T00:24:53;19.40;99.90
3528;DHT22;1778;47.966;7.854;2023-07-08T00:25:55;19.40;99.90
3528;DHT22;1778;47.966;7.854;2023-07-08T00:26:56;19.40;99.90
3528;DHT22;1778;47.966;7.854;2023-07-08T00:27:58;19.30;99.90
3528;DHT22;1778;47.966;7.854;2023-07-08T00:29:00;19.30;99.90
3528;DHT22;1778;47.966;7.854;2023-07-08T00:30:04;19.30;99.90
3528;DHT22;1778;47.966;7.854;2023-07-08T00:31:10;19.30;99.90
3528;DHT22;1778;47.966;7.854;2023-07-08T00:32:14;19.30;99.90
3528;DHT22;1778;47.966;7.854;2023-07-08T00:33:16;19.30;99.90
3528;DHT22;1778;47.966;7.854;2023-07-08T00:34:18;19.30;99.90
3528;DHT22;1778;47.966;7.854;2023-07-08T00:36:28;19.30;99.90
3528;DHT22;1778;47.966;7.854;2023-07-08T00:37:30;19.30;99.90
3528;DHT22;1778;47.966;7.854;2023-07-08T00:38:32;19.30;99.90
3528;DHT22;1778;47.966;7.854;2023-07-08T00:39:35;19.30;99.90
3528;DHT22;1778;47.966;7.854;2023-07-08T00:40:37;19.30;99.90
3528;DHT22;1778;47.966;7.854;2023-07-08T00:41:39;19.20;99.90
3528;DHT22;1778;47.966;7.854;2023-07-08T00:42:44;19.30;99.90
3528;DHT22;1778;47.966;7.854;2023-07-08T00:44:54;19.30;99.90
3528;DHT22;1778;47.966;7.854;2023-07-08T00:46:15;19.30;99.90
3528;DHT22;1778;47.966;7.854;2023-07-08T00:47:19;19.20;99.90
3528;DHT22;1778;47.966;7.854;2023-07-08T00:48:25;19.30;99.90
3528;DHT22;1778;47.966;7.854;2023-07-08T00:50:41;19.30;99.90
3528;DHT22;1778;47.966;7.854;2023-07-08T00:51:43;19.30;99.90
3528;DHT22;1778;47.966;7.854;2023-07-08T00:52:45;19.30;99.90
3528;DHT22;1778;47.966;7.854;2023-07-08T00:53:47;19.30;99.90
3528;DHT22;1778;47.966;7.854;2023-07-08T00:54:55;19.30;99.90
3528;DHT22;1778;47.966;7.854;2023-07-08T00:56:04;19.30;99.90
3528;DHT22;1778;47.966;7.854;2023-07-08T00:57:07;19.20;99.90
3528;DHT22;1778;47.966;7.854;2023-07-08T00:58:12;19.30;99.90
3528;DHT22;1778;47.966;7.854;2023-07-08T00:59:31;19.30;99.90
3528;DHT22;1778;47.966;7.854;2023-07-08T01:00:34;19.30;99.90
3528;DHT22;1778;47.966;7.854;2023-07-08T01:01:37;19.30;99.90
3528;DHT22;1778;47.966;7.854;2023-07-08T01:02:49;19.30;99.90
3528;DHT22;1778;47.966;7.854;2023-07-08T01:03:59;19.30;99.90
3528;DHT22;1778;47.966;7.854;2023-07-08T01:05:13;19.30;99.90
3528;DHT22;1778;47.966;7.854;2023-07-08T01:06:20;19.20;99.90
3528;DHT22;1778;47.966;7.854;2023-07-08T01:07:25;19.20;99.90
3528;DHT22;1778;47.966;7.854;2023-07-08T01:08:28;19.20;99.90
3528;DHT22;1778;47.966;7.854;2023-07-08T01:09:34;19.20;99.90
3528;DHT22;1778;47.966;7.854;2023-07-08T01:10:48;19.10;99.90
3528;DHT22;1778;47.966;7.854;2023-07-08T01:11:52;19.20;99.90
3528;DHT22;1778;47.966;7.854;2023-07-08T01:12:57;19.20;99.90
3528;DHT22;1778;47.966;7.854;2023-07-08T01:14:02;19.10;99.90
3528;DHT22;1778;47.966;7.854;2023-07-08T01:15:06;19.10;99.90
3528;DHT22;1778;47.966;7.854;2023-07-08T01:16:08;19.10;99.90
3528;DHT22;1778;47.966;7.854;2023-07-08T01:17:13;19.10;99.90
3528;DHT22;1778;47.966;7.854;2023-07-08T01:18:17;19.10;99.90
3528;DHT22;1778;47.966;7.854;2023-07-08T01:19:22;19.10;99.90
3528;DHT22;1778;47.966;7.854;2023-07-08T01:20:33;19.10;99.90
3528;DHT22;1778;47.966;7.854;2023-07-08T01:23:09;19.10;99.90
3528;DHT22;1778;47.966;7.854;2023-07-08T01:24:11;19.10;99.90
3528;DHT22;1778;47.966;7.854;2023-07-08T01:25:13;19.10;99.90
3528;DHT22;1778;47.966;7.854;2023-07-08T01:26:15;19.10;99.90
3528;DHT22;1778;47.966;7.854;2023-07-08T01:27:19;19.10;99.90
3528;DHT22;1778;47.966;7.854;2023-07-08T01:28:21;19.10;99.90
3528;DHT22;1778;47.966;7.854;2023-07-08T01:29:23;19.00;99.90
3528;DHT22;1778;47.966;7.854;2023-07-08T01:30:25;19.00;99.90
3528;DHT22;1778;47.966;7.854;2023-07-08T01:31:28;19.00;99.90
3528;DHT22;1778;47.966;7.854;2023-07-08T01:32:32;19.00;99.90
3528;DHT22;1778;47.966;7.854;2023-07-08T01:33:35;19.00;99.90
3528;DHT22;1778;47.966;7.854;2023-07-08T01:34:37;19.00;99.90
3528;DHT22;1778;47.966;7.854;2023-07-08T01:35:39;19.00;99.90
3528;DHT22;1778;47.966;7.854;2023-07-08T01:36:44;19.00;99.90
3528;DHT22;1778;47.966;7.854;2023-07-08T01:38:00;19.00;99.90
3528;DHT22;1778;47.966;7.854;2023-07-08T01:39:02;18.90;99.90
3528;DHT22;1778;47.966;7.854;2023-07-08T01:40:37;18.90;99.90
3528;DHT22;1778;47.966;7.854;2023-07-08T01:41:38;18.90;99.90
3528;DHT22;1778;47.966;7.854;2023-07-08T01:42:40;19.00;99.90
3528;DHT22;1778;47.966;7.854;2023-07-08T01:43:43;18.90;99.90
3528;DHT22;1778;47.966;7.854;2023-07-08T01:44:44;19.00;99.90
3528;DHT22;1778;47.966;7.854;2023-07-08T01:45:46;19.00;99.90
3528;DHT22;1778;47.966;7.854;2023-07-08T01:46:50;19.00;99.90
3528;DHT22;1778;47.966;7.854;2023-07-08T01:48:22;19.00;99.90
3528;DHT22;1778;47.966;7.854;2023-07-08T01:49:24;18.90;99.90
3528;DHT22;1778;47.966;7.854;2023-07-08T01:50:27;18.90;99.90
3528;DHT22;1778;47.966;7.854;2023-07-08T01:51:30;18.90;99.90
3528;DHT22;1778;47.966;7.854;2023-07-08T01:52:32;19.00;99.90
3528;DHT22;1778;47.966;7.854;2023-07-08T01:53:38;19.00;99.90
3528;DHT22;1778;47.966;7.854;2023-07-08T01:54:41;18.90;99.90
3528;DHT22;1778;47.966;7.854;2023-07-08T01:55:43;18.90;99.90
3528;DHT22;1778;47.966;7.854;2023-07-08T01:56:44;18.90;99.90
3528;DHT22;1778;47.966;7.854;2023-07-08T01:57:46;18.90;99.90
3528;DHT22;1778;47.966;7.854;2023-07-08T01:58:47;18.90;99.90
3528;DHT22;1778;47.966;7.854;2023-07-08T01:59:49;18.90;99.90
3528;DHT22;1778;47.966;7.854;2023-07-08T02:00:51;18.90;99.90
3528;DHT22;1778;47.966;7.854;2023-07-08T02:01:53;18.90;99.90
3528;DHT22;1778;47.966;7.854;2023-07-08T02:02:58;18.90;99.90
3528;DHT22;1778;47.966;7.854;2023-07-08T02:04:00;18.90;99.90
3528;DHT22;1778;47.966;7.854;2023-07-08T02:05:02;18.90;99.90
3528;DHT22;1778;47.966;7.854;2023-07-08T02:06:05;18.90;99.90
3528;DHT22;1778;47.966;7.854;2023-07-08T02:07:07;18.90;99.90
3528;DHT22;1778;47.966;7.854;2023-07-08T02:08:09;18.90;99.90
3528;DHT22;1778;47.966;7.854;2023-07-08T02:09:11;18.90;99.90
3528;DHT22;1778;47.966;7.854;2023-07-08T02:10:13;18.90;99.90
3528;DHT22;1778;47.966;7.854;2023-07-08T02:11:15;18.90;99.90
3528;DHT22;1778;47.966;7.854;2023-07-08T02:12:17;18.90;99.90
3528;DHT22;1778;47.966;7.854;2023-07-08T02:13:19;19.00;99.90
3528;DHT22;1778;47.966;7.854;2023-07-08T02:14:22;19.10;99.90
3528;DHT22;1778;47.966;7.854;2023-07-08T02:15:26;19.00;99.90
3528;DHT22;1778;47.966;7.854;2023-07-08T02:16:27;19.10;99.90
3528;DHT22;1778;47.966;7.854;2023-07-08T02:17:28;19.00;99.90
3528;DHT22;1778;47.966;7.854;2023-07-08T02:18:30;19.00;99.90
3528;DHT22;1778;47.966;7.854;2023-07-08T02:19:33;19.10;99.90
3528;DHT22;1778;47.966;7.854;2023-07-08T02:20:35;19.10;99.90
3528;DHT22;1778;47.966;7.854;2023-07-08T02:21:37;19.10;99.90
3528;DHT22;1778;47.966;7.854;2023-07-08T02:22:40;19.10;99.90
3528;DHT22;1778;47.966;7.854;2023-07-08T02:23:42;19.10;99.90
3528;DHT22;1778;47.966;7.854;2023-07-08T02:24:44;19.00;99.90
3528;DHT22;1778;47.966;7.854;2023-07-08T02:25:55;19.10;99.90
3528;DHT22;1778;47.966;7.854;2023-07-08T02:26:57;19.10;99.90
3528;DHT22;1778;47.966;7.854;2023-07-08T02:27:59;19.10;99.90
3528;DHT22;1778;47.966;7.854;2023-07-08T02:29:01;19.20;99.90
3528;DHT22;1778;47.966;7.854;2023-07-08T02:30:05;19.20;99.90
3528;DHT22;1778;47.966;7.854;2023-07-08T02:31:07;19.30;99.90
3528;DHT22;1778;47.966;7.854;2023-07-08T02:32:09;19.30;99.90
3528;DHT22;1778;47.966;7.854;2023-07-08T02:33:11;19.30;99.90
3528;DHT22;1778;47.966;7.854;2023-07-08T02:34:12;19.30;99.90
3528;DHT22;1778;47.966;7.854;2023-07-08T02:35:15;19.40;99.90
3528;DHT22;1778;47.966;7.854;2023-07-08T02:36:17;19.40;99.90
3528;DHT22;1778;47.966;7.854;2023-07-08T02:37:19;19.40;99.90
3528;DHT22;1778;47.966;7.854;2023-07-08T02:38:20;19.40;99.90
3528;DHT22;1778;47.966;7.854;2023-07-08T02:39:22;19.40;99.90
3528;DHT22;1778;47.966;7.854;2023-07-08T02:40:25;19.50;99.90
3528;DHT22;1778;47.966;7.854;2023-07-08T02:41:28;19.60;99.90
3528;DHT22;1778;47.966;7.854;2023-07-08T02:42:30;19.80;99.90
3528;DHT22;1778;47.966;7.854;2023-07-08T02:43:31;19.90;99.90
3528;DHT22;1778;47.966;7.854;2023-07-08T02:44:33;19.90;99.90
3528;DHT22;1778;47.966;7.854;2023-07-08T02:45:35;20.10;99.90
3528;DHT22;1778;47.966;7.854;2023-07-08T02:46:37;20.20;99.90
3528;DHT22;1778;47.966;7.854;2023-07-08T02:47:40;20.30;99.90
3528;DHT22;1778;47.966;7.854;2023-07-08T02:48:42;20.30;99.90
3528;DHT22;1778;47.966;7.854;2023-07-08T02:49:45;20.30;99.90
3528;DHT22;1778;47.966;7.854;2023-07-08T02:50:47;20.20;99.90
3528;DHT22;1778;47.966;7.854;2023-07-08T02:51:49;20.20;99.90
3528;DHT22;1778;47.966;7.854;2023-07-08T02:52:50;20.30;99.90
3528;DHT22;1778;47.966;7.854;2023-07-08T02:53:52;20.30;99.90
3528;DHT22;1778;47.966;7.854;2023-07-08T02:54:54;20.30;99.90
3528;DHT22;1778;47.966;7.854;2023-07-08T02:55:56;20.40;99.90
3528;DHT22;1778;47.966;7.854;2023-07-08T02:56:57;20.40;99.90
3528;DHT22;1778;47.966;7.854;2023-07-08T02:57:59;20.40;99.90
3528;DHT22;1778;47.966;7.854;2023-07-08T02:59:00;20.30;99.90
3528;DHT22;1778;47.966;7.854;2023-07-08T03:00:03;20.30;99.90
3528;DHT22;1778;47.966;7.854;2023-07-08T03:01:08;20.30;99.90
3528;DHT22;1778;47.966;7.854;2023-07-08T03:02:11;20.30;99.90
3528;DHT22;1778;47.966;7.854;2023-07-08T03:03:12;20.40;99.90
3528;DHT22;1778;47.966;7.854;2023-07-08T03:04:19;20.50;99.90
3528;DHT22;1778;47.966;7.854;2023-07-08T03:05:23;20.50;99.90
3528;DHT22;1778;47.966;7.854;2023-07-08T03:06:25;20.50;99.90
3528;DHT22;1778;47.966;7.854;2023-07-08T03:07:27;20.40;99.90
3528;DHT22;1778;47.966;7.854;2023-07-08T03:08:29;20.40;99.90
3528;DHT22;1778;47.966;7.854;2023-07-08T03:09:31;20.40;99.90
3528;DHT22;1778;47.966;7.854;2023-07-08T03:10:33;20.40;99.90
3528;DHT22;1778;47.966;7.854;2023-07-08T03:11:35;20.40;99.90
3528;DHT22;1778;47.966;7.854;2023-07-08T03:12:37;20.30;99.90
3528;DHT22;1778;47.966;7.854;2023-07-08T03:13:38;20.30;99.90
3528;DHT22;1778;47.966;7.854;2023-07-08T03:14:41;20.30;99.90
3528;DHT22;1778;47.966;7.854;2023-07-08T03:15:44;20.30;99.90
3528;DHT22;1778;47.966;7.854;2023-07-08T03:16:46;20.20;99.90
3528;DHT22;1778;47.966;7.854;2023-07-08T03:17:48;20.20;99.90
3528;DHT22;1778;47.966;7.854;2023-07-08T03:18:50;20.20;99.90
3528;DHT22;1778;47.966;7.854;2023-07-08T03:19:51;20.20;99.90
3528;DHT22;1778;47.966;7.854;2023-07-08T03:20:54;20.20;99.90
3528;DHT22;1778;47.966;7.854;2023-07-08T03:21:57;20.20;99.90
3528;DHT22;1778;47.966;7.854;2023-07-08T03:23:00;20.10;99.90
3528;DHT22;1778;47.966;7.854;2023-07-08T03:24:01;20.10;99.90
3528;DHT22;1778;47.966;7.854;2023-07-08T03:25:03;20.10;99.90
3528;DHT22;1778;47.966;7.854;2023-07-08T03:26:05;20.10;99.90
3528;DHT22;1778;47.966;7.854;2023-07-08T03:27:07;20.10;99.90
3528;DHT22;1778;47.966;7.854;2023-07-08T03:28:11;20.10;99.90
3528;DHT22;1778;47.966;7.854;2023-07-08T03:29:18;20.10;99.90
3528;DHT22;1778;47.966;7.854;2023-07-08T03:30:21;20.10;99.90
3528;DHT22;1778;47.966;7.854;2023-07-08T03:31:24;20.10;99.90
3528;DHT22;1778;47.966;7.854;2023-07-08T03:32:27;20.00;99.90
3528;DHT22;1778;47.966;7.854;2023-07-08T03:33:28;20.00;99.90
3528;DHT22;1778;47.966;7.854;2023-07-08T03:34:30;20.00;99.90
3528;DHT22;1778;47.966;7.854;2023-07-08T03:35:32;20.10;99.90
3528;DHT22;1778;47.966;7.854;2023-07-08T03:36:33;20.10;99.90
3528;DHT22;1778;47.966;7.854;2023-07-08T03:37:35;20.10;99.90
3528;DHT22;1778;47.966;7.854;2023-07-08T03:38:38;20.10;99.90
3528;DHT22;1778;47.966;7.854;2023-07-08T03:39:40;20.10;99.90
3528;DHT22;1778;47.966;7.854;2023-07-08T03:40:41;20.30;99.90
3528;DHT22;1778;47.966;7.854;2023-07-08T03:41:43;20.30;99.90
3528;DHT22;1778;47.966;7.854;2023-07-08T03:42:46;20.30;99.90
3528;DHT22;1778;47.966;7.854;2023-07-08T03:43:47;20.40;99.90
3528;DHT22;1778;47.966;7.854;2023-07-08T03:44:50;20.40;99.90
3528;DHT22;1778;47.966;7.854;2023-07-08T03:45:51;20.30;99.90
3528;DHT22;1778;47.966;7.854;2023-07-08T03:46:53;20.40;99.90
3528;DHT22;1778;47.966;7.854;2023-07-08T03:47:55;20.40;99.90
3528;DHT22;1778;47.966;7.854;2023-07-08T03:48:57;20.50;99.90
3528;DHT22;1778;47.966;7.854;2023-07-08T03:49:59;20.40;99.90
3528;DHT22;1778;47.966;7.854;2023-07-08T03:51:00;20.50;99.90
3528;DHT22;1778;47.966;7.854;2023-07-08T03:52:02;20.50;99.90
3528;DHT22;1778;47.966;7.854;2023-07-08T03:53:04;20.50;99.90
3528;DHT22;1778;47.966;7.854;2023-07-08T03:54:09;20.60;99.90
3528;DHT22;1778;47.966;7.854;2023-07-08T03:55:13;20.60;99.90
3528;DHT22;1778;47.966;7.854;2023-07-08T03:56:15;20.70;99.90
3528;DHT22;1778;47.966;7.854;2023-07-08T03:57:17;20.70;99.90
3528;DHT22;1778;47.966;7.854;2023-07-08T03:58:20;20.70;99.90
3528;DHT22;1778;47.966;7.854;2023-07-08T03:59:23;20.80;99.90
3528;DHT22;1778;47.966;7.854;2023-07-08T04:00:26;20.90;99.90
3528;DHT22;1778;47.966;7.854;2023-07-08T04:01:28;21.00;99.90
3528;DHT22;1778;47.966;7.854;2023-07-08T04:02:30;21.10;99.90
3528;DHT22;1778;47.966;7.854;2023-07-08T04:03:31;21.10;99.90
3528;DHT22;1778;47.966;7.854;2023-07-08T04:04:33;21.10;99.90
3528;DHT22;1778;47.966;7.854;2023-07-08T04:05:37;21.20;99.90
3528;DHT22;1778;47.966;7.854;2023-07-08T04:06:39;21.10;99.90
3528;DHT22;1778;47.966;7.854;2023-07-08T04:07:41;21.10;99.90
3528;DHT22;1778;47.966;7.854;2023-07-08T04:08:42;21.20;99.90
3528;DHT22;1778;47.966;7.854;2023-07-08T04:09:44;21.10;99.90
3528;DHT22;1778;47.966;7.854;2023-07-08T04:10:51;21.10;99.90
3528;DHT22;1778;47.966;7.854;2023-07-08T04:11:53;21.10;99.90
3528;DHT22;1778;47.966;7.854;2023-07-08T04:12:55;21.10;99.90
3528;DHT22;1778;47.966;7.854;2023-07-08T04:13:57;21.10;99.90
3528;DHT22;1778;47.966;7.854;2023-07-08T04:14:59;21.00;99.90
3528;DHT22;1778;47.966;7.854;2023-07-08T04:16:03;21.00;99.90
3528;DHT22;1778;47.966;7.854;2023-07-08T04:17:05;20.90;99.90
3528;DHT22;1778;47.966;7.854;2023-07-08T04:18:08;20.90;99.90
3528;DHT22;1778;47.966;7.854;2023-07-08T04:19:10;20.80;99.90
3528;DHT22;1778;47.966;7.854;2023-07-08T04:20:18;20.80;99.90
3528;DHT22;1778;47.966;7.854;2023-07-08T04:21:21;20.70;99.90
3528;DHT22;1778;47.966;7.854;2023-07-08T04:22:23;20.70;99.90
3528;DHT22;1778;47.966;7.854;2023-07-08T04:23:25;20.60;99.90
3528;DHT22;1778;47.966;7.854;2023-07-08T04:24:27;20.60;99.90
3528;DHT22;1778;47.966;7.854;2023-07-08T04:25:28;20.60;99.90
3528;DHT22;1778;47.966;7.854;2023-07-08T04:26:30;20.60;99.90
3528;DHT22;1778;47.966;7.854;2023-07-08T04:27:36;20.50;99.90
3528;DHT22;1778;47.966;7.854;2023-07-08T04:28:38;20.50;99.90
3528;DHT22;1778;47.966;7.854;2023-07-08T04:29:40;20.40;99.90
3528;DHT22;1778;47.966;7.854;2023-07-08T04:30:42;20.40;99.90
3528;DHT22;1778;47.966;7.854;2023-07-08T04:31:45;20.30;99.90
3528;DHT22;1778;47.966;7.854;2023-07-08T04:32:47;20.30;99.90
3528;DHT22;1778;47.966;7.854;2023-07-08T04:33:50;20.10;99.90
3528;DHT22;1778;47.966;7.854;2023-07-08T04:34:52;20.10;99.90
3528;DHT22;1778;47.966;7.854;2023-07-08T04:35:53;20.00;99.90
3528;DHT22;1778;47.966;7.854;2023-07-08T04:36:55;20.10;99.90
3528;DHT22;1778;47.966;7.854;2023-07-08T04:37:57;20.00;99.90
3528;DHT22;1778;47.966;7.854;2023-07-08T04:38:59;20.00;99.90
3528;DHT22;1778;47.966;7.854;2023-07-08T04:40:01;19.90;99.90
3528;DHT22;1778;47.966;7.854;2023-07-08T04:41:03;19.90;99.90
3528;DHT22;1778;47.966;7.854;2023-07-08T04:42:05;19.80;99.90
3528;DHT22;1778;47.966;7.854;2023-07-08T04:43:06;19.80;99.90
3528;DHT22;1778;47.966;7.854;2023-07-08T04:44:08;19.80;99.90
3528;DHT22;1778;47.966;7.854;2023-07-08T04:45:10;19.80;99.90
3528;DHT22;1778;47.966;7.854;2023-07-08T04:46:19;19.80;99.90
3528;DHT22;1778;47.966;7.854;2023-07-08T04:47:21;19.80;99.90
3528;DHT22;1778;47.966;7.854;2023-07-08T04:48:23;19.80;99.90
3528;DHT22;1778;47.966;7.854;2023-07-08T04:49:26;19.70;99.90
3528;DHT22;1778;47.966;7.854;2023-07-08T04:50:35;19.70;99.90
3528;DHT22;1778;47.966;7.854;2023-07-08T04:51:37;19.60;99.90
3528;DHT22;1778;47.966;7.854;2023-07-08T04:52:39;19.50;99.90
3528;DHT22;1778;47.966;7.854;2023-07-08T04:53:41;19.50;99.90
3528;DHT22;1778;47.966;7.854;2023-07-08T04:54:42;19.50;99.90
3528;DHT22;1778;47.966;7.854;2023-07-08T04:55:48;19.50;99.90
3528;DHT22;1778;47.966;7.854;2023-07-08T04:56:49;19.40;99.90
3528;DHT22;1778;47.966;7.854;2023-07-08T04:57:51;19.40;99.90
3528;DHT22;1778;47.966;7.854;2023-07-08T04:58:53;19.30;99.90
3528;DHT22;1778;47.966;7.854;2023-07-08T04:59:54;19.30;99.90
3528;DHT22;1778;47.966;7.854;2023-07-08T05:00:56;19.30;99.90
3528;DHT22;1778;47.966;7.854;2023-07-08T05:01:57;19.30;99.90
3528;DHT22;1778;47.966;7.854;2023-07-08T05:02:59;19.30;99.90
3528;DHT22;1778;47.966;7.854;2023-07-08T05:04:02;19.30;99.90
3528;DHT22;1778;47.966;7.854;2023-07-08T05:05:04;19.20;99.90
3528;DHT22;1778;47.966;7.854;2023-07-08T05:06:06;19.10;99.90
3528;DHT22;1778;47.966;7.854;2023-07-08T05:07:07;19.20;99.90
3528;DHT22;1778;47.966;7.854;2023-07-08T05:08:09;19.20;99.90
3528;DHT22;1778;47.966;7.854;2023-07-08T05:09:12;19.20;99.90
3528;DHT22;1778;47.966;7.854;2023-07-08T05:10:17;19.20;99.90
3528;DHT22;1778;47.966;7.854;2023-07-08T05:11:20;19.20;99.90
3528;DHT22;1778;47.966;7.854;2023-07-08T05:12:22;19.20;99.90
3528;DHT22;1778;47.966;7.854;2023-07-08T05:13:24;19.20;99.90
3528;DHT22;1778;47.966;7.854;2023-07-08T05:14:26;19.10;99.90
3528;DHT22;1778;47.966;7.854;2023-07-08T05:15:27;19.10;99.90
3528;DHT22;1778;47.966;7.854;2023-07-08T05:16:29;19.00;99.90
3528;DHT22;1778;47.966;7.854;2023-07-08T05:17:31;19.00;99.90
3528;DHT22;1778;47.966;7.854;2023-07-08T05:18:32;18.90;99.90
3528;DHT22;1778;47.966;7.854;2023-07-08T05:19:34;18.90;99.90
3528;DHT22;1778;47.966;7.854;2023-07-08T05:20:36;18.90;99.90
3528;DHT22;1778;47.966;7.854;2023-07-08T05:21:38;18.80;99.90
3528;DHT22;1778;47.966;7.854;2023-07-08T05:22:40;18.70;99.90
3528;DHT22;1778;47.966;7.854;2023-07-08T05:23:44;18.70;99.90
3528;DHT22;1778;47.966;7.854;2023-07-08T05:24:46;18.70;99.90
3528;DHT22;1778;47.966;7.854;2023-07-08T05:25:49;18.60;99.90
3528;DHT22;1778;47.966;7.854;2023-07-08T05:26:51;18.60;99.90
3528;DHT22;1778;47.966;7.854;2023-07-08T05:27:52;18.50;99.90
3528;DHT22;1778;47.966;7.854;2023-07-08T05:28:54;18.60;99.90
3528;DHT22;1778;47.966;7.854;2023-07-08T05:29:56;18.50;99.90
3528;DHT22;1778;47.966;7.854;2023-07-08T05:30:58;18.50;99.90
3528;DHT22;1778;47.966;7.854;2023-07-08T05:32:00;18.50;99.90
3528;DHT22;1778;47.966;7.854;2023-07-08T05:33:07;18.40;99.90
3528;DHT22;1778;47.966;7.854;2023-07-08T05:34:09;18.40;99.90
3528;DHT22;1778;47.966;7.854;2023-07-08T05:35:11;18.40;99.90
3528;DHT22;1778;47.966;7.854;2023-07-08T05:36:13;18.40;99.90
3528;DHT22;1778;47.966;7.854;2023-07-08T05:37:15;18.30;99.90
3528;DHT22;1778;47.966;7.854;2023-07-08T05:38:20;18.30;99.90
3528;DHT22;1778;47.966;7.854;2023-07-08T05:39:22;18.30;99.90
3528;DHT22;1778;47.966;7.854;2023-07-08T05:40:24;18.30;99.90
3528;DHT22;1778;47.966;7.854;2023-07-08T05:41:26;18.30;99.90
3528;DHT22;1778;47.966;7.854;2023-07-08T05:42:28;18.30;99.90
3528;DHT22;1778;47.966;7.854;2023-07-08T05:43:29;18.20;99.90
3528;DHT22;1778;47.966;7.854;2023-07-08T05:44:31;18.20;99.90
3528;DHT22;1778;47.966;7.854;2023-07-08T05:45:33;18.20;99.90
3528;DHT22;1778;47.966;7.854;2023-07-08T05:46:37;18.20;99.90
3528;DHT22;1778;47.966;7.854;2023-07-08T05:47:39;18.30;99.90
3528;DHT22;1778;47.966;7.854;2023-07-08T05:48:40;18.30;99.90
3528;DHT22;1778;47.966;7.854;2023-07-08T05:49:42;18.30;99.90
3528;DHT22;1778;47.966;7.854;2023-07-08T05:50:45;18.30;99.90
3528;DHT22;1778;47.966;7.854;2023-07-08T05:51:47;18.30;99.90
3528;DHT22;1778;47.966;7.854;2023-07-08T05:52:48;18.30;99.90
3528;DHT22;1778;47.966;7.854;2023-07-08T05:53:50;18.30;99.90
3528;DHT22;1778;47.966;7.854;2023-07-08T05:54:54;18.30;99.90
3528;DHT22;1778;47.966;7.854;2023-07-08T05:55:56;18.30;99.90
3528;DHT22;1778;47.966;7.854;2023-07-08T05:56:58;18.30;99.90
3528;DHT22;1778;47.966;7.854;2023-07-08T05:57:59;18.30;99.90
3528;DHT22;1778;47.966;7.854;2023-07-08T05:59:01;18.20;99.90
3528;DHT22;1778;47.966;7.854;2023-07-08T06:00:04;18.30;99.90
3528;DHT22;1778;47.966;7.854;2023-07-08T06:01:12;18.30;99.90
3528;DHT22;1778;47.966;7.854;2023-07-08T06:02:14;18.30;99.90
3528;DHT22;1778;47.966;7.854;2023-07-08T06:03:16;18.30;99.90
3528;DHT22;1778;47.966;7.854;2023-07-08T06:04:18;18.30;99.90
3528;DHT22;1778;47.966;7.854;2023-07-08T06:05:19;18.30;99.90
3528;DHT22;1778;47.966;7.854;2023-07-08T06:06:21;18.30;99.90
3528;DHT22;1778;47.966;7.854;2023-07-08T06:07:23;18.30;99.90
3528;DHT22;1778;47.966;7.854;2023-07-08T06:08:24;18.30;99.90
3528;DHT22;1778;47.966;7.854;2023-07-08T06:09:26;18.30;99.90
3528;DHT22;1778;47.966;7.854;2023-07-08T06:10:28;18.40;99.90
3528;DHT22;1778;47.966;7.854;2023-07-08T06:11:29;18.40;99.90
3528;DHT22;1778;47.966;7.854;2023-07-08T06:12:33;18.40;99.90
3528;DHT22;1778;47.966;7.854;2023-07-08T06:13:35;18.40;99.90
3528;DHT22;1778;47.966;7.854;2023-07-08T06:14:37;18.50;99.90
3528;DHT22;1778;47.966;7.854;2023-07-08T06:15:40;18.40;99.90
3528;DHT22;1778;47.966;7.854;2023-07-08T06:16:42;18.40;99.90
3528;DHT22;1778;47.966;7.854;2023-07-08T06:17:47;18.50;99.90
3528;DHT22;1778;47.966;7.854;2023-07-08T06:18:49;18.50;99.90
3528;DHT22;1778;47.966;7.854;2023-07-08T06:19:50;18.60;99.90
3528;DHT22;1778;47.966;7.854;2023-07-08T06:20:57;18.50;99.90
3528;DHT22;1778;47.966;7.854;2023-07-08T06:21:59;18.50;99.90
3528;DHT22;1778;47.966;7.854;2023-07-08T06:23:21;18.50;99.90
3528;DHT22;1778;47.966;7.854;2023-07-08T06:24:22;18.50;99.90
3528;DHT22;1778;47.966;7.854;2023-07-08T06:25:24;18.50;99.90
3528;DHT22;1778;47.966;7.854;2023-07-08T06:26:25;18.50;99.90
3528;DHT22;1778;47.966;7.854;2023-07-08T06:27:27;18.50;99.90
3528;DHT22;1778;47.966;7.854;2023-07-08T06:28:29;18.50;99.90
3528;DHT22;1778;47.966;7.854;2023-07-08T06:29:30;18.50;99.90
3528;DHT22;1778;47.966;7.854;2023-07-08T06:30:33;18.50;99.90
3528;DHT22;1778;47.966;7.854;2023-07-08T06:31:34;18.50;99.90
3528;DHT22;1778;47.966;7.854;2023-07-08T06:32:37;18.60;99.90
3528;DHT22;1778;47.966;7.854;2023-07-08T06:33:39;18.60;99.90
3528;DHT22;1778;47.966;7.854;2023-07-08T06:34:41;18.60;99.90
3528;DHT22;1778;47.966;7.854;2023-07-08T06:35:43;18.70;99.90
3528;DHT22;1778;47.966;7.854;2023-07-08T06:36:45;18.70;99.90
3528;DHT22;1778;47.966;7.854;2023-07-08T06:37:47;18.80;99.90
3528;DHT22;1778;47.966;7.854;2023-07-08T06:38:49;18.80;99.90
3528;DHT22;1778;47.966;7.854;2023-07-08T06:39:51;18.80;99.90
3528;DHT22;1778;47.966;7.854;2023-07-08T06:40:52;18.90;99.90
3528;DHT22;1778;47.966;7.854;2023-07-08T06:41:54;18.90;99.90
3528;DHT22;1778;47.966;7.854;2023-07-08T06:43:02;18.90;99.90
3528;DHT22;1778;47.966;7.854;2023-07-08T06:44:19;18.90;99.90
3528;DHT22;1778;47.966;7.854;2023-07-08T06:45:20;19.00;99.90
3528;DHT22;1778;47.966;7.854;2023-07-08T06:46:22;19.00;99.90
3528;DHT22;1778;47.966;7.854;2023-07-08T06:47:24;19.00;99.90
3528;DHT22;1778;47.966;7.854;2023-07-08T06:48:26;19.10;99.90
3528;DHT22;1778;47.966;7.854;2023-07-08T06:49:28;19.10;99.90
3528;DHT22;1778;47.966;7.854;2023-07-08T06:50:29;19.10;99.90
3528;DHT22;1778;47.966;7.854;2023-07-08T06:51:31;19.20;99.90
3528;DHT22;1778;47.966;7.854;2023-07-08T06:52:33;19.20;99.90
3528;DHT22;1778;47.966;7.854;2023-07-08T06:53:36;19.30;99.90
3528;DHT22;1778;47.966;7.854;2023-07-08T06:54:37;19.40;99.90
3528;DHT22;1778;47.966;7.854;2023-07-08T06:55:39;19.40;99.90
3528;DHT22;1778;47.966;7.854;2023-07-08T06:56:41;19.40;99.90